createdAt,value
2019-02-26T00:01:34.931Z,86.79
2019-02-26T00:04:04.732Z,87.45
2019-02-26T00:06:34.483Z,87.38
2019-02-26T00:09:06.848Z,87.25
2019-02-26T00:11:38.419Z,87.65
2019-02-26T00:14:08.118Z,87.62
2019-02-26T00:16:39.963Z,87.64
2019-02-26T00:19:09.831Z,87.56
2019-02-26T00:21:40.885Z,87.48
2019-02-26T00:24:12.816Z,87.56
2019-02-26T00:26:43.491Z,87.91
2019-02-26T00:29:13.580Z,88.11
2019-02-26T00:31:46.048Z,87.94
2019-02-26T00:34:16.877Z,87.82
2019-02-26T00:36:46.564Z,88.23
2019-02-26T00:39:16.278Z,88.21
2019-02-26T00:41:49.320Z,87.72
2019-02-26T00:44:18.614Z,88.27
2019-02-26T00:46:48.887Z,88.14
2019-02-26T00:49:19.110Z,88.10
2019-02-26T00:51:52.401Z,88.02
2019-02-26T00:54:24.306Z,88.06
2019-02-26T00:56:53.034Z,87.93
2019-02-26T00:59:22.765Z,87.74
2019-02-26T01:01:54.490Z,87.64
2019-02-26T01:04:24.510Z,87.56
2019-02-26T01:06:54.217Z,87.44
2019-02-26T01:09:25.179Z,87.22
2019-02-26T01:11:55.448Z,87.19
2019-02-26T01:14:25.234Z,87.00
2019-02-26T01:16:54.997Z,87.61
2019-02-26T01:19:24.716Z,87.01
2019-02-26T01:21:54.426Z,87.10
2019-02-26T01:24:25.857Z,86.66
2019-02-26T01:26:55.572Z,86.86
2019-02-26T01:29:27.632Z,87.27
2019-02-26T01:31:56.777Z,87.29
2019-02-26T01:34:26.503Z,87.37
2019-02-26T01:36:56.228Z,86.71
2019-02-26T01:39:26.043Z,86.92
2019-02-26T01:41:56.258Z,87.25
2019-02-26T01:44:30.182Z,87.87
2019-02-26T01:47:00.878Z,88.09
2019-02-26T01:49:30.176Z,88.81
2019-02-26T01:52:00.009Z,88.82
2019-02-26T01:54:30.525Z,89.17
2019-02-26T01:57:01.177Z,89.83
2019-02-26T01:59:31.710Z,90.42
2019-02-26T02:02:02.302Z,90.84
2019-02-26T02:04:34.110Z,90.73
2019-02-26T02:07:05.833Z,90.48
2019-02-26T02:09:35.109Z,90.40
2019-02-26T02:12:07.126Z,90.32
2019-02-26T02:14:36.306Z,90.21
2019-02-26T02:17:08.350Z,89.78
2019-02-26T02:19:37.694Z,89.83
2019-02-26T02:22:07.474Z,89.74
2019-02-26T02:24:39.234Z,89.62
2019-02-26T02:27:08.856Z,89.42
2019-02-26T02:29:41.832Z,89.61
2019-02-26T02:32:10.253Z,89.36
2019-02-26T02:34:42.886Z,89.31
2019-02-26T02:37:11.483Z,89.36
2019-02-26T02:39:41.200Z,89.31
2019-02-26T02:42:13.323Z,88.98
2019-02-26T02:44:44.849Z,89.17
2019-02-26T02:47:13.784Z,89.30
2019-02-26T02:49:44.370Z,89.25
2019-02-26T02:52:14.260Z,89.22
2019-02-26T02:54:47.019Z,89.31
2019-02-26T02:57:15.496Z,89.20
2019-02-26T02:59:45.354Z,89.20
2019-02-26T03:02:17.396Z,89.31
2019-02-26T03:04:46.530Z,89.93
2019-02-26T03:07:17.814Z,90.20
2019-02-26T03:09:47.744Z,89.99
2019-02-26T03:12:17.651Z,89.81
2019-02-26T03:14:47.638Z,89.73
2019-02-26T03:17:20.134Z,89.76
2019-02-26T03:19:49.006Z,89.77
2019-02-26T03:22:21.589Z,89.61
2019-02-26T03:24:53.805Z,90.30
2019-02-26T03:27:23.496Z,90.76
2019-02-26T03:29:56.230Z,90.52
2019-02-26T03:32:25.499Z,90.02
2019-02-26T03:34:55.398Z,89.85
2019-02-26T03:37:25.914Z,90.07
2019-02-26T03:39:58.069Z,90.10
2019-02-26T03:42:28.577Z,90.40
2019-02-26T03:44:59.619Z,90.37
2019-02-26T03:47:30.868Z,90.70
2019-02-26T03:50:00.578Z,90.83
2019-02-26T03:52:32.128Z,90.82
2019-02-26T03:55:03.331Z,90.73
2019-02-26T03:57:33.741Z,90.56
2019-02-26T04:00:08.185Z,90.78
2019-02-26T04:02:37.514Z,90.70
2019-02-26T04:05:10.736Z,90.61
2019-02-26T04:07:40.512Z,90.58
2019-02-26T04:10:13.794Z,90.54
2019-02-26T04:12:45.049Z,90.82
2019-02-26T04:15:24.316Z,90.91
2019-02-26T04:17:52.711Z,90.91
2019-02-26T04:20:22.450Z,91.01
2019-02-26T04:22:53.308Z,90.84
2019-02-26T04:25:44.891Z,90.62
2019-02-26T04:28:33.016Z,90.46
2019-02-26T04:31:10.248Z,90.11
2019-02-26T04:34:08.532Z,90.03
2019-02-26T04:37:04.776Z,89.61
2019-02-26T04:39:44.962Z,89.67
2019-02-26T04:42:38.394Z,89.80
2019-02-26T04:45:14.201Z,90.55
2019-02-26T04:47:56.981Z,90.67
2019-02-26T04:50:28.699Z,90.82
2019-02-26T04:52:59.115Z,90.36
2019-02-26T04:55:29.724Z,89.80
2019-02-26T04:57:58.812Z,89.40
2019-02-26T05:00:30.390Z,89.47
2019-02-26T05:02:59.985Z,89.64
2019-02-26T05:05:32.020Z,89.75
2019-02-26T05:08:04.055Z,89.85
2019-02-26T05:10:34.334Z,89.94
2019-02-26T05:13:07.380Z,89.63
2019-02-26T05:15:35.686Z,89.89
2019-02-26T05:18:05.477Z,90.05
2019-02-26T05:20:36.794Z,89.87
2019-02-26T05:23:06.752Z,89.36
2019-02-26T05:25:39.238Z,89.69
2019-02-26T05:28:10.070Z,89.83
2019-02-26T05:30:40.435Z,89.97
2019-02-26T05:33:11.100Z,89.60
2019-02-26T05:35:43.555Z,89.75
2019-02-26T05:38:12.255Z,89.73
2019-02-26T05:40:42.851Z,89.92
2019-02-26T05:43:13.599Z,89.55
2019-02-26T05:45:43.301Z,89.20
2019-02-26T05:48:15.340Z,89.36
2019-02-26T05:50:44.800Z,89.71
2019-02-26T05:53:14.552Z,89.68
2019-02-26T05:55:47.559Z,89.73
2019-02-26T05:58:18.666Z,89.90
2019-02-26T06:00:47.016Z,89.89
2019-02-26T06:03:18.604Z,89.25
2019-02-26T06:05:48.948Z,89.30
2019-02-26T06:08:19.359Z,89.63
2019-02-26T06:10:49.006Z,89.45
2019-02-26T06:13:18.712Z,89.59
2019-02-26T06:15:51.273Z,89.97
2019-02-26T06:18:21.001Z,89.80
2019-02-26T06:20:51.719Z,89.81
2019-02-26T06:23:23.148Z,89.76
2019-02-26T06:25:55.998Z,89.69
2019-02-26T06:28:25.727Z,89.22
2019-02-26T06:30:55.385Z,89.64
2019-02-26T06:33:25.064Z,89.72
2019-02-26T06:35:55.319Z,89.67
2019-02-26T06:38:28.062Z,89.55
2019-02-26T06:40:57.412Z,89.49
2019-02-26T06:43:27.108Z,89.70
2019-02-26T06:45:56.826Z,89.12
2019-02-26T06:48:29.195Z,89.71
2019-02-26T06:50:59.866Z,89.84
2019-02-26T06:53:29.277Z,90.21
2019-02-26T06:56:00.771Z,89.85
2019-02-26T06:58:30.419Z,89.51
2019-02-26T07:01:00.153Z,89.29
2019-02-26T07:03:29.848Z,88.90
2019-02-26T07:06:01.715Z,89.20
2019-02-26T07:08:31.246Z,89.48
2019-02-26T07:11:00.955Z,89.17
2019-02-26T07:13:30.688Z,89.35
2019-02-26T07:16:04.605Z,88.80
2019-02-26T07:18:31.952Z,88.69
2019-02-26T07:21:01.625Z,88.11
2019-02-26T07:23:35.194Z,87.75
2019-02-26T07:26:04.711Z,88.18
2019-02-26T07:28:34.359Z,87.94
2019-02-26T07:31:05.512Z,87.80
2019-02-26T07:33:37.059Z,88.10
2019-02-26T07:36:07.148Z,87.70
2019-02-26T07:38:41.324Z,87.59
2019-02-26T07:41:08.438Z,87.12
2019-02-26T07:43:41.094Z,86.85
2019-02-26T07:46:12.150Z,86.83
2019-02-26T07:48:41.334Z,86.55
2019-02-26T07:51:11.085Z,86.09
2019-02-26T07:53:44.404Z,85.96
2019-02-26T07:56:12.252Z,85.54
2019-02-26T07:58:43.126Z,85.66
2019-02-26T08:01:13.014Z,85.10
2019-02-26T08:03:43.900Z,84.66
2019-02-26T08:06:14.255Z,83.81
2019-02-26T08:08:44.934Z,83.10
2019-02-26T08:11:15.573Z,82.71
2019-02-26T08:13:45.290Z,82.66
2019-02-26T08:16:15.008Z,82.42
2019-02-26T08:18:44.655Z,82.23
2019-02-26T08:21:14.327Z,82.17
2019-02-26T08:23:46.025Z,81.58
2019-02-26T08:26:17.294Z,80.58
2019-02-26T08:28:48.229Z,80.44
2019-02-26T08:31:20.523Z,79.99
2019-02-26T08:33:51.692Z,80.28
2019-02-26T08:36:21.137Z,79.25
2019-02-26T08:38:52.059Z,79.03
2019-02-26T08:41:21.870Z,78.40
2019-02-26T08:43:53.970Z,78.11
2019-02-26T08:46:23.096Z,77.63
2019-02-26T08:48:52.840Z,76.86
2019-02-26T08:51:22.568Z,75.97
2019-02-26T08:53:54.691Z,75.51
2019-02-26T08:56:26.213Z,74.87
2019-02-26T08:58:55.286Z,75.09
2019-02-26T09:01:24.981Z,74.57
2019-02-26T09:03:55.932Z,74.36
2019-02-26T09:06:26.136Z,74.41
2019-02-26T09:08:57.939Z,74.34
2019-02-26T09:11:28.795Z,73.50
2019-02-26T09:13:59.398Z,71.10
2019-02-26T09:16:30.426Z,70.71
2019-02-26T09:19:01.168Z,70.83
2019-02-26T09:21:30.844Z,70.39
2019-02-26T09:24:04.208Z,70.51
2019-02-26T09:26:31.994Z,69.20
2019-02-26T09:29:01.807Z,67.99
2019-02-26T09:31:31.583Z,66.17
2019-02-26T09:34:01.272Z,66.31
2019-02-26T09:36:31.099Z,67.05
2019-02-26T09:39:00.781Z,67.31
2019-02-26T09:41:30.706Z,66.12
2019-02-26T09:44:03.844Z,64.97
2019-02-26T09:46:35.878Z,64.12
2019-02-26T09:49:05.108Z,64.40
2019-02-26T09:51:35.317Z,63.54
2019-02-26T09:54:06.120Z,64.32
2019-02-26T09:56:35.889Z,63.22
2019-02-26T09:59:07.144Z,63.13
2019-02-26T10:01:37.844Z,63.71
2019-02-26T10:04:08.455Z,62.96
2019-02-26T10:06:40.541Z,62.65
2019-02-26T10:09:12.780Z,62.04
2019-02-26T10:11:42.435Z,61.48
2019-02-26T10:14:12.697Z,63.05
2019-02-26T10:16:44.556Z,63.96
2019-02-26T10:19:17.097Z,63.97
2019-02-26T10:21:46.420Z,64.24
2019-02-26T10:24:18.398Z,65.11
2019-02-26T10:26:47.500Z,65.13
2019-02-26T10:29:17.153Z,64.04
2019-02-26T10:31:46.858Z,64.32
2019-02-26T10:34:19.141Z,64.70
2019-02-26T10:36:51.281Z,64.45
2019-02-26T10:39:20.818Z,65.21
2019-02-26T10:41:50.669Z,65.31
2019-02-26T10:44:20.545Z,65.32
2019-02-26T10:46:50.264Z,65.78
2019-02-26T10:49:20.044Z,64.91
2019-02-26T10:51:49.669Z,65.56
2019-02-26T10:54:19.410Z,65.77
2019-02-26T10:56:49.037Z,65.74
2019-02-26T10:59:19.675Z,65.84
2019-02-26T11:01:52.036Z,66.49
2019-02-26T11:04:20.922Z,65.92
2019-02-26T11:06:50.621Z,66.41
2019-02-26T11:09:25.403Z,66.15
2019-02-26T11:11:51.613Z,66.03
2019-02-26T11:14:21.394Z,66.10
2019-02-26T11:16:51.087Z,67.12
2019-02-26T11:19:20.898Z,65.99
2019-02-26T11:21:55.560Z,67.02
2019-02-26T11:24:23.477Z,66.26
2019-02-26T11:26:53.396Z,66.74
2019-02-26T11:29:23.140Z,66.18
2019-02-26T11:31:52.835Z,65.95
2019-02-26T11:34:22.530Z,65.23
2019-02-26T11:36:54.165Z,65.79
2019-02-26T11:39:23.782Z,65.54
2019-02-26T11:41:54.571Z,65.51
2019-02-26T11:44:25.770Z,65.53
2019-02-26T11:46:56.596Z,66.07
2019-02-26T11:49:26.384Z,65.89
2019-02-26T11:51:56.058Z,65.98
2019-02-26T11:54:31.219Z,66.08
2019-02-26T11:56:58.120Z,66.14
2019-02-26T11:59:27.837Z,65.47
2019-02-26T12:01:59.142Z,65.98
2019-02-26T12:04:29.017Z,65.37
2019-02-26T12:07:01.044Z,64.39
2019-02-26T12:09:32.948Z,64.36
2019-02-26T12:12:03.469Z,63.28
2019-02-26T12:14:34.746Z,63.97
2019-02-26T12:17:04.381Z,63.02
2019-02-26T12:19:34.947Z,63.39
2019-02-26T12:22:06.073Z,62.90
2019-02-26T12:24:36.251Z,62.35
2019-02-26T12:27:07.312Z,61.97
2019-02-26T12:29:37.271Z,62.01
2019-02-26T12:32:06.993Z,60.67
2019-02-26T12:34:38.487Z,60.25
2019-02-26T12:37:11.160Z,60.45
2019-02-26T12:39:39.520Z,59.29
2019-02-26T12:42:10.561Z,59.39
2019-02-26T12:44:44.825Z,57.68
2019-02-26T12:47:14.684Z,54.88
2019-02-26T12:49:45.138Z,57.34
2019-02-26T12:52:16.086Z,56.32
2019-02-26T12:54:46.365Z,56.73
2019-02-26T12:57:19.081Z,56.71
2019-02-26T12:59:47.587Z,57.38
2019-02-26T13:02:20.793Z,57.60
2019-02-26T13:04:51.150Z,56.78
2019-02-26T13:07:20.266Z,57.67
2019-02-26T13:09:54.687Z,57.01
2019-02-26T13:12:24.158Z,57.18
2019-02-26T13:14:56.482Z,56.98
2019-02-26T13:17:28.191Z,57.02
2019-02-26T13:19:58.954Z,57.85
2019-02-26T13:22:28.152Z,57.98
2019-02-26T13:25:00.247Z,57.57
2019-02-26T13:27:30.236Z,57.99
2019-02-26T13:30:00.090Z,57.80
2019-02-26T13:32:32.154Z,57.63
2019-02-26T13:35:07.404Z,58.55
2019-02-26T13:37:36.592Z,58.77
2019-02-26T13:40:13.410Z,58.00
2019-02-26T13:42:49.907Z,58.48
2019-02-26T13:45:17.050Z,58.77
2019-02-26T13:47:46.994Z,58.65
2019-02-26T13:50:27.533Z,57.32
2019-02-26T13:52:57.346Z,57.02
2019-02-26T13:55:27.128Z,57.99
2019-02-26T13:57:56.837Z,56.08
2019-02-26T14:00:27.164Z,56.62
2019-02-26T14:02:56.889Z,56.53
2019-02-26T14:05:26.545Z,56.21
2019-02-26T14:07:56.301Z,57.05
2019-02-26T14:10:26.698Z,57.64
2019-02-26T14:12:56.650Z,57.32
2019-02-26T14:15:27.543Z,58.92
2019-02-26T14:17:57.450Z,55.00
2019-02-26T14:20:27.248Z,54.30
2019-02-26T14:22:56.942Z,56.48
2019-02-26T14:25:26.719Z,55.38
2019-02-26T14:27:56.496Z,57.16
2019-02-26T14:30:26.276Z,56.73
2019-02-26T14:32:56.104Z,55.49
2019-02-26T14:35:25.930Z,54.95
2019-02-26T14:37:57.166Z,54.94
2019-02-26T14:40:26.806Z,55.51
2019-02-26T14:42:56.535Z,55.90
2019-02-26T14:45:27.331Z,56.38
2019-02-26T14:47:57.025Z,56.73
2019-02-26T14:50:27.068Z,57.09
2019-02-26T14:52:56.783Z,57.02
2019-02-26T14:55:26.493Z,57.56
2019-02-26T14:57:56.177Z,57.25
2019-02-26T15:00:29.799Z,57.46
2019-02-26T15:02:59.460Z,57.40
2019-02-26T15:05:29.107Z,57.99
2019-02-26T15:07:58.769Z,58.96
2019-02-26T15:10:28.564Z,59.61
2019-02-26T15:12:58.399Z,59.39
2019-02-26T15:15:28.110Z,59.45
2019-02-26T15:17:57.782Z,60.42
2019-02-26T15:20:30.156Z,60.47
2019-02-26T15:22:59.874Z,61.08
2019-02-26T15:25:31.432Z,61.29
2019-02-26T15:28:05.629Z,61.96
2019-02-26T15:30:35.448Z,61.84
2019-02-26T15:33:11.195Z,62.31
2019-02-26T15:35:36.584Z,62.27
2019-02-26T15:38:06.306Z,62.75
2019-02-26T15:40:35.942Z,63.38
2019-02-26T15:43:05.701Z,63.71
2019-02-26T15:45:35.510Z,64.14
2019-02-26T15:48:05.288Z,64.77
2019-02-26T15:50:34.998Z,65.27
2019-02-26T15:53:04.661Z,65.22
2019-02-26T15:55:34.477Z,65.48
2019-02-26T15:58:06.700Z,65.76
2019-02-26T16:00:37.677Z,65.94
2019-02-26T16:03:07.287Z,65.77
2019-02-26T16:05:40.525Z,64.81
2019-02-26T16:08:10.406Z,65.04
2019-02-26T16:10:40.320Z,64.60
2019-02-26T16:13:10.055Z,65.31
2019-02-26T16:15:40.150Z,65.48
2019-02-26T16:18:10.008Z,65.87
2019-02-26T16:20:41.353Z,66.06
2019-02-26T16:23:11.220Z,66.35
2019-02-26T16:25:40.863Z,66.90
2019-02-26T16:28:27.327Z,67.51
2019-02-26T16:30:59.879Z,67.93
2019-02-26T16:33:29.713Z,68.43
2019-02-26T16:35:59.375Z,68.51
2019-02-26T16:38:29.071Z,68.04
2019-02-26T16:40:58.733Z,67.83
2019-02-26T16:43:28.385Z,67.21
2019-02-26T16:46:00.165Z,67.06
2019-02-26T16:48:29.855Z,66.61
2019-02-26T16:50:59.800Z,66.60
2019-02-26T16:53:33.485Z,66.69
2019-02-26T16:56:01.317Z,66.75
2019-02-26T16:58:35.207Z,67.09
2019-02-26T17:01:05.828Z,67.82
2019-02-26T17:03:35.537Z,68.01
2019-02-26T17:06:05.495Z,68.56
2019-02-26T17:08:35.527Z,68.40
2019-02-26T17:11:05.327Z,68.15
2019-02-26T17:13:35.333Z,68.05
2019-02-26T17:16:05.000Z,68.56
2019-02-26T17:18:34.899Z,69.03
2019-02-26T17:21:04.769Z,69.07
2019-02-26T17:23:34.376Z,68.92
2019-02-26T17:26:04.310Z,67.58
2019-02-26T17:28:33.947Z,66.70
2019-02-26T17:31:03.660Z,66.59
2019-02-26T17:33:33.302Z,66.99
2019-02-26T17:36:02.994Z,67.57
2019-02-26T17:38:32.643Z,68.18
2019-02-26T17:41:04.485Z,68.71
2019-02-26T17:43:34.176Z,69.34
2019-02-26T17:46:04.040Z,69.71
2019-02-26T17:48:43.100Z,69.93
2019-02-26T17:51:05.059Z,70.53
2019-02-26T17:53:34.737Z,70.72
2019-02-26T17:56:05.310Z,70.81
2019-02-26T17:58:35.010Z,71.16
2019-02-26T18:01:05.325Z,71.71
2019-02-26T18:03:35.201Z,72.15
2019-02-26T18:06:04.842Z,72.40
2019-02-26T18:08:34.608Z,73.08
2019-02-26T18:11:04.689Z,72.92
2019-02-26T18:13:37.416Z,73.15
2019-02-26T18:16:09.881Z,73.78
2019-02-26T18:18:38.815Z,74.45
2019-02-26T18:21:08.480Z,74.68
2019-02-26T18:23:38.341Z,74.90
2019-02-26T18:26:09.427Z,75.27
2019-02-26T18:28:39.028Z,75.37
2019-02-26T18:31:08.763Z,75.66
2019-02-26T18:33:38.592Z,75.94
2019-02-26T18:36:08.271Z,76.24
2019-02-26T18:38:37.932Z,76.63
2019-02-26T18:41:07.751Z,77.18
2019-02-26T18:43:37.394Z,77.56
2019-02-26T18:46:08.623Z,77.20
2019-02-26T18:48:38.478Z,77.54
2019-02-26T18:51:08.205Z,79.12
2019-02-26T18:53:38.062Z,78.79
2019-02-26T18:56:08.891Z,78.56
2019-02-26T18:58:38.564Z,78.78
2019-02-26T19:01:08.189Z,78.64
2019-02-26T19:03:39.330Z,78.54
2019-02-26T19:06:10.520Z,78.48
2019-02-26T19:08:41.549Z,78.50
2019-02-26T19:11:16.515Z,78.37
2019-02-26T19:13:42.941Z,78.20
2019-02-26T19:16:12.793Z,78.94
2019-02-26T19:18:42.585Z,79.40
2019-02-26T19:21:12.295Z,79.10
2019-02-26T19:23:42.210Z,78.86
2019-02-26T19:26:13.724Z,79.50
2019-02-26T19:28:43.386Z,79.55
2019-02-26T19:31:13.076Z,79.76
2019-02-26T19:33:42.743Z,79.81
2019-02-26T19:36:12.966Z,79.98
2019-02-26T19:38:43.302Z,79.85
2019-02-26T19:41:15.641Z,79.60
2019-02-26T19:43:45.284Z,79.45
2019-02-26T19:46:18.065Z,79.52
2019-02-26T19:48:47.713Z,79.80
2019-02-26T19:51:22.945Z,80.09
2019-02-26T19:53:52.881Z,80.09
2019-02-26T19:56:23.783Z,80.00
2019-02-26T19:58:55.157Z,79.57
2019-02-26T20:01:25.863Z,79.18
2019-02-26T20:03:56.218Z,79.18
2019-02-26T20:06:26.871Z,79.33
2019-02-26T20:24:37.255Z,79.47
2019-02-26T20:27:07.512Z,79.81
2019-02-26T20:29:37.250Z,80.20
2019-02-26T20:32:06.965Z,80.50
2019-02-26T20:34:36.626Z,80.78
2019-02-26T20:37:06.278Z,80.25
2019-02-26T20:39:35.918Z,80.00
2019-02-26T20:42:05.565Z,80.27
2019-02-26T20:44:35.393Z,80.67
2019-02-26T20:47:05.034Z,80.94
2019-02-26T20:49:34.706Z,80.17
2019-02-26T20:52:04.350Z,80.13
2019-02-26T20:54:34.036Z,80.32
2019-02-26T20:57:04.444Z,80.67
2019-02-26T20:59:34.133Z,80.69
2019-02-26T21:02:03.857Z,80.50
2019-02-26T21:04:33.549Z,80.58
2019-02-26T21:07:03.274Z,80.35
2019-02-26T21:09:33.010Z,79.79
2019-02-26T21:12:02.778Z,80.45
2019-02-26T21:14:32.443Z,80.96
2019-02-26T21:17:02.179Z,80.08
2019-02-26T21:19:35.551Z,80.21
2019-02-26T21:22:03.337Z,80.12
2019-02-26T21:24:34.615Z,79.99
2019-02-26T21:27:04.506Z,80.05
2019-02-26T21:29:34.216Z,80.30
2019-02-26T21:32:03.942Z,80.19
2019-02-26T21:34:33.658Z,79.98
2019-02-26T21:37:03.361Z,79.87
2019-02-26T21:39:33.077Z,79.97
2019-02-26T21:42:02.852Z,80.16
2019-02-26T21:44:32.606Z,80.27
2019-02-26T21:47:02.924Z,80.44
2019-02-26T21:49:32.653Z,80.70
2019-02-26T21:52:04.150Z,80.63
2019-02-26T21:54:34.138Z,80.67
2019-02-26T21:57:03.868Z,80.86
2019-02-26T21:59:33.526Z,81.22
2019-02-26T22:02:03.226Z,81.05
2019-02-26T22:04:32.895Z,81.46
2019-02-26T22:07:02.487Z,81.33
2019-02-26T22:09:32.105Z,81.69
2019-02-26T22:12:01.734Z,82.07
2019-02-26T22:14:31.352Z,82.16
2019-02-26T22:17:00.990Z,82.21
2019-02-26T22:19:30.608Z,82.03
2019-02-26T22:22:00.239Z,82.11
2019-02-26T22:24:29.856Z,82.29
2019-02-26T22:27:00.250Z,82.20
2019-02-26T22:29:30.045Z,82.25
2019-02-26T22:32:02.419Z,82.12
2019-02-26T22:34:31.090Z,82.05
2019-02-26T22:37:00.739Z,82.17
2019-02-26T22:39:30.334Z,82.05
2019-02-26T22:41:59.985Z,81.83
2019-02-26T22:44:29.612Z,81.49
2019-02-26T22:46:59.346Z,81.71
2019-02-26T22:49:28.942Z,81.78
2019-02-26T22:51:59.119Z,81.97
2019-02-26T22:54:28.770Z,81.79
2019-02-26T22:56:58.391Z,82.06
2019-02-26T22:59:28.038Z,82.14
2019-02-26T23:01:58.695Z,82.19
2019-02-26T23:04:28.337Z,82.31
2019-02-26T23:06:57.963Z,82.25
2019-02-26T23:09:28.713Z,82.48
2019-02-26T23:12:04.665Z,82.49
2019-02-26T23:14:31.636Z,82.82
2019-02-26T23:17:01.829Z,82.72
2019-02-26T23:19:31.481Z,83.05
2019-02-26T23:22:08.357Z,83.11
2019-02-26T23:24:38.036Z,82.06
2019-02-26T23:27:07.725Z,82.03
2019-02-26T23:29:40.347Z,82.65
2019-02-26T23:32:09.991Z,82.82
2019-02-26T23:34:39.645Z,82.71
2019-02-26T23:37:15.280Z,82.34
2019-02-26T23:39:45.190Z,82.25
2019-02-26T23:42:14.898Z,82.40
2019-02-26T23:44:44.542Z,82.53
2019-02-26T23:47:14.154Z,82.39
2019-02-26T23:49:44.845Z,82.46
2019-02-26T23:52:15.157Z,82.27
2019-02-26T23:54:44.804Z,82.60
2019-02-26T23:57:14.495Z,82.41
2019-02-26T23:59:44.152Z,82.78
